createdAt,value
2017-04-04T00:00:40.754Z,1022.74
2017-04-04T00:01:50.995Z,1022.75
2017-04-04T00:03:01.230Z,1022.78
2017-04-04T00:04:11.158Z,1022.75
2017-04-04T00:05:20.772Z,1022.7
2017-04-04T00:06:30.386Z,1022.72
2017-04-04T00:07:39.997Z,1022.7
2017-04-04T00:08:49.618Z,1022.7
2017-04-04T00:09:59.542Z,1022.71
2017-04-04T00:11:09.784Z,1022.67
2017-04-04T00:12:20.028Z,1022.68
2017-04-04T00:13:30.272Z,1022.64
2017-04-04T00:14:40.521Z,1022.69
2017-04-04T00:15:50.452Z,1022.62
2017-04-04T00:17:00.076Z,1022.65
2017-04-04T00:18:10.310Z,1022.63
2017-04-04T00:19:20.557Z,1022.64
2017-04-04T00:20:30.808Z,1022.62
2017-04-04T00:21:40.425Z,1022.62
2017-04-04T00:22:50.360Z,1022.62
2017-04-04T00:24:00.285Z,1022.63
2017-04-04T00:25:10.210Z,1022.62
2017-04-04T00:26:19.824Z,1022.59
2017-04-04T00:27:30.068Z,1022.61
2017-04-04T00:28:40.313Z,1022.58
2017-04-04T00:29:50.554Z,1022.59
2017-04-04T00:31:00.167Z,1022.59
2017-04-04T00:32:10.413Z,1022.6
2017-04-04T00:33:20.651Z,1022.6
2017-04-04T00:34:30.890Z,1022.59
2017-04-04T00:35:41.134Z,1022.61
2017-04-04T00:36:51.064Z,1022.59
2017-04-04T00:38:01.302Z,1022.59
2017-04-04T00:39:11.545Z,1022.52
2017-04-04T00:40:21.786Z,1022.53
2017-04-04T00:41:31.712Z,1022.5
2017-04-04T00:42:41.949Z,1022.46
2017-04-04T00:43:51.876Z,1022.49
2017-04-04T00:45:01.534Z,1022.45
2017-04-04T00:46:11.151Z,1022.44
2017-04-04T00:47:21.075Z,1022.43
2017-04-04T00:48:30.692Z,1022.44
2017-04-04T00:49:40.622Z,1022.42
2017-04-04T00:50:50.552Z,1022.4
2017-04-04T00:52:00.485Z,1022.4
2017-04-04T00:53:09.783Z,1022.39
2017-04-04T00:54:19.705Z,1022.4
2017-04-04T00:55:29.955Z,1022.4
2017-04-04T00:56:40.193Z,1022.38
2017-04-04T00:57:50.430Z,1022.4
2017-04-04T00:59:00.355Z,1022.38
2017-04-04T01:00:10.594Z,1022.36
2017-04-04T01:01:20.532Z,1022.35
2017-04-04T01:02:30.776Z,1022.35
2017-04-04T01:03:41.014Z,1022.34
2017-04-04T01:04:50.947Z,1022.33
2017-04-04T01:06:00.869Z,1022.29
2017-04-04T01:07:11.108Z,1022.31
2017-04-04T01:08:21.355Z,1022.32
2017-04-04T01:09:31.284Z,1022.35
2017-04-04T01:10:41.211Z,1022.35
2017-04-04T01:11:51.451Z,1022.35
2017-04-04T01:13:01.377Z,1022.33
2017-04-04T01:14:11.613Z,1022.33
2017-04-04T01:15:21.542Z,1022.34
2017-04-04T01:16:31.786Z,1022.28
2017-04-04T01:17:42.026Z,1022.3
2017-04-04T01:18:52.267Z,1022.31
2017-04-04T01:20:02.506Z,1022.29
2017-04-04T01:21:12.749Z,1022.33
2017-04-04T01:22:22.676Z,1022.32
2017-04-04T01:23:32.605Z,1022.36
2017-04-04T01:24:42.842Z,1022.34
2017-04-04T01:25:53.082Z,1022.34
2017-04-04T01:27:03.010Z,1022.33
2017-04-04T01:28:12.634Z,1022.33
2017-04-04T01:29:22.875Z,1022.31
2017-04-04T01:30:32.798Z,1022.3
2017-04-04T01:31:42.728Z,1022.3
2017-04-04T01:32:52.661Z,1022.27
2017-04-04T01:34:02.591Z,1022.27
2017-04-04T01:35:12.831Z,1022.29
2017-04-04T01:36:23.067Z,1022.3
2017-04-04T01:37:33.306Z,1022.31
2017-04-04T01:38:43.549Z,1022.32
2017-04-04T01:39:53.477Z,1022.34
2017-04-04T01:41:03.090Z,1022.31
2017-04-04T01:42:13.370Z,1022.34
2017-04-04T01:43:23.302Z,1022.32
2017-04-04T01:44:33.548Z,1022.29
2017-04-04T01:45:43.481Z,1022.28
2017-04-04T01:46:53.410Z,1022.3
2017-04-04T01:48:03.654Z,1022.29
2017-04-04T01:49:13.578Z,1022.28
2017-04-04T01:50:23.826Z,1022.26
2017-04-04T01:51:33.753Z,1022.23
2017-04-04T01:52:43.685Z,1022.23
2017-04-04T01:53:53.924Z,1022.26
2017-04-04T01:55:04.165Z,1022.24
2017-04-04T01:56:14.405Z,1022.24
2017-04-04T01:57:24.327Z,1022.24
2017-04-04T01:58:34.572Z,1022.24
2017-04-04T01:59:44.496Z,1022.23
2017-04-04T02:00:54.438Z,1022.24
2017-04-04T02:02:04.679Z,1022.25
2017-04-04T02:03:14.609Z,1022.2
2017-04-04T02:04:24.849Z,1022.21
2017-04-04T02:05:35.086Z,1022.26
2017-04-04T02:06:44.699Z,1022.26
2017-04-04T02:07:54.952Z,1022.28
2017-04-04T02:09:04.876Z,1022.24
2017-04-04T02:10:15.115Z,1022.26
2017-04-04T02:11:25.355Z,1022.23
2017-04-04T02:12:35.598Z,1022.27
2017-04-04T02:13:45.836Z,1022.22
2017-04-04T02:14:55.774Z,1022.23
2017-04-04T02:16:05.696Z,1022.23
2017-04-04T02:17:15.620Z,1022.21
2017-04-04T02:18:25.859Z,1022.22
2017-04-04T02:19:36.101Z,1022.18
2017-04-04T02:20:46.037Z,1022.17
2017-04-04T02:21:55.966Z,1022.14
2017-04-04T02:23:05.897Z,1022.15
2017-04-04T02:24:15.820Z,1022.14
2017-04-04T02:25:25.433Z,1022.14
2017-04-04T02:26:35.362Z,1022.14
2017-04-04T02:27:45.290Z,1022.15
2017-04-04T02:28:55.528Z,1022.18
2017-04-04T02:30:05.448Z,1022.15
2017-04-04T02:31:15.077Z,1022.08
2017-04-04T02:32:24.693Z,1022.1
2017-04-04T02:33:34.934Z,1022.12
2017-04-04T02:34:45.179Z,1022.1
2017-04-04T02:35:55.426Z,1022.1
2017-04-04T02:37:05.357Z,1022.1
2017-04-04T02:38:15.596Z,1022.13
2017-04-04T02:39:25.836Z,1022.14
2017-04-04T02:40:36.084Z,1022.12
2017-04-04T02:41:46.013Z,1022.12
2017-04-04T02:42:55.940Z,1022.12
2017-04-04T02:44:06.183Z,1022.13
2017-04-04T02:45:15.800Z,1022.11
2017-04-04T02:46:25.728Z,1022.09
2017-04-04T02:47:35.651Z,1022.12
2017-04-04T02:48:45.575Z,1022.13
2017-04-04T02:49:55.500Z,1022.1
2017-04-04T02:51:05.747Z,1022.09
2017-04-04T02:52:15.357Z,1022.11
2017-04-04T02:53:24.967Z,1022.09
2017-04-04T02:54:35.206Z,1022.1
2017-04-04T02:55:45.452Z,1022.1
2017-04-04T02:56:55.693Z,1022.13
2017-04-04T02:58:05.941Z,1022.1
2017-04-04T02:59:16.182Z,1022.08
2017-04-04T03:00:26.107Z,1022.05
2017-04-04T03:01:36.352Z,1022.04
2017-04-04T03:02:46.594Z,1022.04
2017-04-04T03:03:56.518Z,1022.05
2017-04-04T03:05:06.443Z,1022.02
2017-04-04T03:06:16.703Z,1022.01
2017-04-04T03:07:26.950Z,1022.04
2017-04-04T03:08:36.562Z,1022.03
2017-04-04T03:09:46.488Z,1022.03
2017-04-04T03:10:56.725Z,1022.02
2017-04-04T03:12:06.967Z,1021.99
2017-04-04T03:13:16.894Z,1021.96
2017-04-04T03:14:26.820Z,1022
2017-04-04T03:15:37.057Z,1021.99
2017-04-04T03:16:46.991Z,1021.98
2017-04-04T03:17:57.226Z,1021.97
2017-04-04T03:19:07.189Z,1022.02
2017-04-04T03:20:16.805Z,1022.01
2017-04-04T03:21:26.730Z,1022.02
2017-04-04T03:22:36.971Z,1021.98
2017-04-04T03:23:46.896Z,1021.98
2017-04-04T03:24:57.148Z,1021.99
2017-04-04T03:26:07.391Z,1022
2017-04-04T03:27:17.632Z,1022.03
2017-04-04T03:28:27.878Z,1022.05
2017-04-04T03:29:38.120Z,1022.07
2017-04-04T03:30:48.367Z,1022.04
2017-04-04T03:31:58.293Z,1022.06
2017-04-04T03:33:08.541Z,1022.05
2017-04-04T03:34:18.469Z,1022.1
2017-04-04T03:35:28.394Z,1022.11
2017-04-04T03:36:38.008Z,1022.13
2017-04-04T03:37:48.263Z,1022.12
2017-04-04T03:38:57.873Z,1022.15
2017-04-04T03:40:07.490Z,1022.17
2017-04-04T03:41:17.732Z,1022.15
2017-04-04T03:42:27.970Z,1022.17
2017-04-04T03:43:38.243Z,1022.17
2017-04-04T03:44:48.494Z,1022.22
2017-04-04T03:45:58.741Z,1022.24
2017-04-04T03:47:08.666Z,1022.2
2017-04-04T03:48:18.282Z,1022.21
2017-04-04T03:49:27.895Z,1022.23
2017-04-04T03:50:37.821Z,1022.18
2017-04-04T03:51:48.059Z,1022.24
2017-04-04T03:52:58.302Z,1022.28
2017-04-04T03:54:08.228Z,1022.28
2017-04-04T03:55:18.468Z,1022.26
2017-04-04T03:56:28.707Z,1022.28
2017-04-04T03:57:38.956Z,1022.29
2017-04-04T03:58:48.882Z,1022.3
2017-04-04T03:59:59.128Z,1022.27
2017-04-04T04:01:09.057Z,1022.28
2017-04-04T04:02:18.987Z,1022.27
2017-04-04T04:03:29.231Z,1022.32
2017-04-04T04:04:38.840Z,1022.31
2017-04-04T04:05:48.771Z,1022.34
2017-04-04T04:06:58.702Z,1022.3
2017-04-04T04:08:08.625Z,1022.29
2017-04-04T04:09:18.860Z,1022.29
2017-04-04T04:10:29.300Z,1022.24
2017-04-04T04:11:39.552Z,1022.23
2017-04-04T04:12:49.793Z,1022.21
2017-04-04T04:13:59.716Z,1022.26
2017-04-04T04:15:09.641Z,1022.25
2017-04-04T04:16:19.253Z,1022.22
2017-04-04T04:17:28.867Z,1022.19
2017-04-04T04:18:38.805Z,1022.15
2017-04-04T04:19:48.737Z,1022.18
2017-04-04T04:20:58.034Z,1022.16
2017-04-04T04:22:07.339Z,1022.22
2017-04-04T04:23:17.267Z,1022.18
2017-04-04T04:24:27.202Z,1022.24
2017-04-04T04:25:37.134Z,1022.17
2017-04-04T04:26:47.380Z,1022.21
2017-04-04T04:27:57.659Z,1022.17
2017-04-04T04:29:07.905Z,1022.22
2017-04-04T04:30:18.143Z,1022.23
2017-04-04T04:31:28.383Z,1022.26
2017-04-04T04:32:38.316Z,1022.28
2017-04-04T04:33:47.933Z,1022.29
2017-04-04T04:34:58.173Z,1022.29
2017-04-04T04:36:07.795Z,1022.27
2017-04-04T04:37:17.727Z,1022.23
2017-04-04T04:38:27.656Z,1022.23
2017-04-04T04:39:37.583Z,1022.23
2017-04-04T04:40:47.827Z,1022.24
2017-04-04T04:41:58.071Z,1022.23
2017-04-04T04:43:08.324Z,1022.27
2017-04-04T04:44:18.252Z,1022.27
2017-04-04T04:45:28.488Z,1022.26
2017-04-04T04:46:38.729Z,1022.29
2017-04-04T04:47:48.656Z,1022.29
2017-04-04T04:48:58.893Z,1022.3
2017-04-04T04:50:08.870Z,1022.25
2017-04-04T04:51:18.795Z,1022.24
2017-04-04T04:52:29.051Z,1022.28
2017-04-04T04:53:39.290Z,1022.27
2017-04-04T04:54:49.533Z,1022.26
2017-04-04T04:55:59.771Z,1022.27
2017-04-04T04:57:10.013Z,1022.24
2017-04-04T04:58:19.317Z,1022.27
2017-04-04T04:59:29.248Z,1022.32
2017-04-04T05:00:38.870Z,1022.3
2017-04-04T05:01:48.492Z,1022.27
2017-04-04T05:02:58.108Z,1022.23
2017-04-04T05:04:08.040Z,1022.23
2017-04-04T05:05:17.656Z,1022.26
2017-04-04T05:06:27.897Z,1022.24
2017-04-04T05:07:37.832Z,1022.26
2017-04-04T05:08:47.756Z,1022.22
2017-04-04T05:09:57.365Z,1022.23
2017-04-04T05:11:07.607Z,1022.22
2017-04-04T05:12:17.842Z,1022.23
2017-04-04T05:13:28.079Z,1022.23
2017-04-04T05:14:38.318Z,1022.23
2017-04-04T05:15:48.566Z,1022.21
2017-04-04T05:16:58.492Z,1022.26
2017-04-04T05:18:08.416Z,1022.22
2017-04-04T05:19:18.711Z,1022.24
2017-04-04T05:20:28.948Z,1022.26
2017-04-04T05:21:38.561Z,1022.32
2017-04-04T05:22:48.503Z,1022.31
2017-04-04T05:23:58.119Z,1022.32
2017-04-04T05:25:07.736Z,1022.31
2017-04-04T05:26:17.976Z,1022.33
2017-04-04T05:27:27.903Z,1022.32
2017-04-04T05:28:37.827Z,1022.31
2017-04-04T05:29:48.059Z,1022.32
2017-04-04T05:30:58.294Z,1022.27
2017-04-04T05:32:08.539Z,1022.27
2017-04-04T05:33:18.780Z,1022.26
2017-04-04T05:34:28.704Z,1022.25
2017-04-04T05:35:38.630Z,1022.23
2017-04-04T05:36:48.876Z,1022.25
2017-04-04T05:37:58.806Z,1022.24
2017-04-04T05:39:09.055Z,1022.26
2017-04-04T05:40:19.296Z,1022.26
2017-04-04T05:41:28.921Z,1022.24
2017-04-04T05:42:39.220Z,1022.28
2017-04-04T05:43:49.159Z,1022.29
2017-04-04T05:44:59.396Z,1022.31
2017-04-04T05:46:09.327Z,1022.28
2017-04-04T05:47:19.568Z,1022.31
2017-04-04T05:48:29.809Z,1022.31
2017-04-04T05:49:40.050Z,1022.31
2017-04-04T05:50:50.287Z,1022.39
2017-04-04T05:52:00.218Z,1022.35
2017-04-04T05:53:09.851Z,1022.37
2017-04-04T05:54:19.773Z,1022.37
2017-04-04T05:55:29.694Z,1022.39
2017-04-04T05:56:39.937Z,1022.42
2017-04-04T05:57:50.176Z,1022.41
2017-04-04T05:58:59.799Z,1022.42
2017-04-04T06:00:09.733Z,1022.41
2017-04-04T06:01:19.067Z,1022.42
2017-04-04T06:02:28.998Z,1022.42
2017-04-04T06:03:38.923Z,1022.4
2017-04-04T06:04:49.166Z,1022.44
2017-04-04T06:05:59.110Z,1022.42
2017-04-04T06:07:08.733Z,1022.38
2017-04-04T06:08:18.658Z,1022.38
2017-04-04T06:09:28.274Z,1022.36
2017-04-04T06:10:38.518Z,1022.34
2017-04-04T06:11:48.815Z,1022.32
2017-04-04T06:12:59.103Z,1022.36
2017-04-04T06:14:09.035Z,1022.35
2017-04-04T06:15:19.310Z,1022.39
2017-04-04T06:16:29.566Z,1022.42
2017-04-04T06:17:39.804Z,1022.42
2017-04-04T06:18:50.038Z,1022.4
2017-04-04T06:19:59.964Z,1022.41
2017-04-04T06:21:10.203Z,1022.42
2017-04-04T06:22:20.444Z,1022.44
2017-04-04T06:23:30.071Z,1022.41
2017-04-04T06:24:39.994Z,1022.45
2017-04-04T06:25:50.236Z,1022.42
2017-04-04T06:26:59.850Z,1022.45
2017-04-04T06:28:09.464Z,1022.48
2017-04-04T06:29:19.388Z,1022.48
2017-04-04T06:30:29.315Z,1022.48
2017-04-04T06:31:39.247Z,1022.44
2017-04-04T06:32:49.490Z,1022.49
2017-04-04T06:33:59.108Z,1022.45
2017-04-04T06:35:09.349Z,1022.43
2017-04-04T06:36:19.589Z,1022.44
2017-04-04T06:37:29.522Z,1022.42
2017-04-04T06:38:39.451Z,1022.46
2017-04-04T06:39:49.385Z,1022.43
2017-04-04T06:40:58.994Z,1022.42
2017-04-04T06:42:08.923Z,1022.39
2017-04-04T06:43:18.846Z,1022.37
2017-04-04T06:44:28.461Z,1022.39
2017-04-04T06:45:38.398Z,1022.41
2017-04-04T06:46:48.332Z,1022.39
2017-04-04T06:47:58.267Z,1022.37
2017-04-04T06:49:08.510Z,1022.35
2017-04-04T06:50:18.437Z,1022.37
2017-04-04T06:51:28.366Z,1022.33
2017-04-04T06:52:38.608Z,1022.36
2017-04-04T06:53:48.535Z,1022.32
2017-04-04T06:54:58.775Z,1022.28
2017-04-04T06:56:08.385Z,1022.31
2017-04-04T06:57:18.316Z,1022.25
2017-04-04T06:58:28.300Z,1022.25
2017-04-04T06:59:38.547Z,1022.24
2017-04-04T07:00:48.785Z,1022.29
2017-04-04T07:01:59.024Z,1022.28
2017-04-04T07:03:08.958Z,1022.31
2017-04-04T07:04:19.210Z,1022.33
2017-04-04T07:05:29.450Z,1022.34
2017-04-04T07:06:39.377Z,1022.35
2017-04-04T07:07:49.620Z,1022.36
2017-04-04T07:08:59.896Z,1022.33
2017-04-04T07:10:10.137Z,1022.35
2017-04-04T07:11:19.455Z,1022.32
2017-04-04T07:12:29.385Z,1022.32
2017-04-04T07:13:39.308Z,1022.32
2017-04-04T07:14:49.544Z,1022.3
2017-04-04T07:15:59.466Z,1022.28
2017-04-04T07:17:09.705Z,1022.27
2017-04-04T07:18:19.644Z,1022.23
2017-04-04T07:19:29.905Z,1022.19
2017-04-04T07:20:39.845Z,1022.19
2017-04-04T07:21:49.457Z,1022.19
2017-04-04T07:22:59.700Z,1022.18
2017-04-04T07:24:09.948Z,1022.18
2017-04-04T07:25:20.193Z,1022.19
2017-04-04T07:26:29.807Z,1022.21
2017-04-04T07:27:39.464Z,1022.19
2017-04-04T07:28:48.766Z,1022.17
2017-04-04T07:29:59.005Z,1022.23
2017-04-04T07:31:08.931Z,1022.2
2017-04-04T07:32:18.544Z,1022.18
2017-04-04T07:33:28.785Z,1022.23
2017-04-04T07:34:39.021Z,1022.15
2017-04-04T07:35:48.956Z,1022.16
2017-04-04T07:36:58.887Z,1022.19
2017-04-04T07:38:09.137Z,1022.18
2017-04-04T07:39:19.378Z,1022.23
2017-04-04T07:40:29.306Z,1022.22
2017-04-04T07:41:39.554Z,1022.26
2017-04-04T07:42:49.168Z,1022.26
2017-04-04T07:43:58.778Z,1022.24
2017-04-04T07:45:08.760Z,1022.27
2017-04-04T07:46:19.004Z,1022.22
2017-04-04T07:47:28.939Z,1022.26
2017-04-04T07:48:38.871Z,1022.22
2017-04-04T07:49:48.800Z,1022.25
2017-04-04T07:50:59.036Z,1022.28
2017-04-04T07:52:09.274Z,1022.27
2017-04-04T07:53:19.203Z,1022.28
2017-04-04T07:54:28.812Z,1022.3
2017-04-04T07:55:39.052Z,1022.28
2017-04-04T07:56:49.291Z,1022.26
2017-04-04T07:57:58.948Z,1022.2
2017-04-04T07:59:09.189Z,1022.25
2017-04-04T08:00:19.436Z,1022.2
2017-04-04T08:01:29.363Z,1022.25
2017-04-04T08:02:39.296Z,1022.29
2017-04-04T08:03:49.223Z,1022.28
2017-04-04T08:04:58.871Z,1022.29
2017-04-04T08:06:09.111Z,1022.28
2017-04-04T08:07:19.358Z,1022.25
2017-04-04T08:08:29.286Z,1022.25
2017-04-04T08:09:39.221Z,1022.3
2017-04-04T08:10:49.152Z,1022.31
2017-04-04T08:11:59.082Z,1022.33
2017-04-04T08:13:09.330Z,1022.34
2017-04-04T08:14:19.267Z,1022.31
2017-04-04T08:15:29.195Z,1022.32
2017-04-04T08:16:39.434Z,1022.35
2017-04-04T08:17:49.059Z,1022.32
2017-04-04T08:18:59.298Z,1022.31
2017-04-04T08:20:09.539Z,1022.32
2017-04-04T08:21:19.153Z,1022.3
2017-04-04T08:22:29.420Z,1022.31
2017-04-04T08:23:39.654Z,1022.36
2017-04-04T08:24:49.577Z,1022.34
2017-04-04T08:25:59.512Z,1022.35
2017-04-04T08:27:09.128Z,1022.33
2017-04-04T08:28:19.371Z,1022.34
2017-04-04T08:29:28.986Z,1022.37
2017-04-04T08:30:38.924Z,1022.34
2017-04-04T08:31:49.162Z,1022.32
2017-04-04T08:32:59.403Z,1022.33
2017-04-04T08:34:09.333Z,1022.38
2017-04-04T08:35:19.572Z,1022.39
2017-04-04T08:36:29.829Z,1022.35
2017-04-04T08:37:39.768Z,1022.38
2017-04-04T08:38:49.689Z,1022.45
2017-04-04T08:39:59.619Z,1022.46
2017-04-04T08:41:08.922Z,1022.46
2017-04-04T08:42:18.851Z,1022.45
2017-04-04T08:43:28.780Z,1022.42
2017-04-04T08:44:38.708Z,1022.41
2017-04-04T08:45:48.955Z,1022.45
2017-04-04T08:46:59.202Z,1022.45
2017-04-04T08:48:09.451Z,1022.44
2017-04-04T08:49:19.686Z,1022.43
2017-04-04T08:50:29.928Z,1022.47
2017-04-04T08:51:40.173Z,1022.47
2017-04-04T08:52:50.418Z,1022.45
2017-04-04T08:54:00.661Z,1022.47
2017-04-04T08:55:10.282Z,1022.47
2017-04-04T08:56:20.213Z,1022.46
2017-04-04T08:57:30.141Z,1022.45
2017-04-04T08:58:40.382Z,1022.46
2017-04-04T08:59:50.309Z,1022.5
2017-04-04T09:01:00.245Z,1022.5
2017-04-04T09:02:10.490Z,1022.46
2017-04-04T09:03:20.735Z,1022.46
2017-04-04T09:04:30.975Z,1022.44
2017-04-04T09:05:41.212Z,1022.46
2017-04-04T09:06:51.457Z,1022.43
2017-04-04T09:08:01.702Z,1022.46
2017-04-04T09:09:11.943Z,1022.46
2017-04-04T09:10:21.873Z,1022.39
2017-04-04T09:11:32.116Z,1022.4
2017-04-04T09:12:42.049Z,1022.4
2017-04-04T09:13:51.973Z,1022.38
2017-04-04T09:15:01.595Z,1022.41
2017-04-04T09:16:11.839Z,1022.39
2017-04-04T09:17:21.471Z,1022.37
2017-04-04T09:18:31.724Z,1022.39
2017-04-04T09:19:41.652Z,1022.34
2017-04-04T09:20:51.893Z,1022.37
2017-04-04T09:22:02.135Z,1022.32
2017-04-04T09:23:12.372Z,1022.34
2017-04-04T09:24:22.616Z,1022.34
2017-04-04T09:25:32.542Z,1022.35
2017-04-04T09:26:42.468Z,1022.38
2017-04-04T09:27:52.398Z,1022.41
2017-04-04T09:29:02.323Z,1022.41
2017-04-04T09:30:12.562Z,1022.38
2017-04-04T09:31:22.491Z,1022.41
2017-04-04T09:32:32.765Z,1022.38
2017-04-04T09:33:43.008Z,1022.42
2017-04-04T09:34:52.935Z,1022.38
2017-04-04T09:36:02.860Z,1022.42
2017-04-04T09:37:12.785Z,1022.39
2017-04-04T09:38:22.716Z,1022.36
2017-04-04T09:39:32.958Z,1022.36
2017-04-04T09:40:42.884Z,1022.3
2017-04-04T09:41:53.328Z,1022.3
2017-04-04T09:43:03.267Z,1022.28
2017-04-04T09:44:13.171Z,1022.22
2017-04-04T09:45:23.413Z,1022.23
2017-04-04T09:46:33.649Z,1022.23
2017-04-04T09:47:43.574Z,1022.21
2017-04-04T09:48:53.807Z,1022.17
2017-04-04T09:50:03.735Z,1022.22
2017-04-04T09:51:13.352Z,1022.23
2017-04-04T09:52:23.590Z,1022.15
2017-04-04T09:53:33.226Z,1022.19
2017-04-04T09:54:43.468Z,1022.2
2017-04-04T09:55:53.714Z,1022.22
2017-04-04T09:57:03.338Z,1022.14
2017-04-04T09:58:13.579Z,1022.15
2017-04-04T09:59:23.507Z,1022.18
2017-04-04T10:00:33.429Z,1022.21
2017-04-04T10:01:43.670Z,1022.19
2017-04-04T10:02:53.601Z,1022.22
2017-04-04T10:04:03.842Z,1022.25
2017-04-04T10:05:14.088Z,1022.14
2017-04-04T10:06:24.328Z,1022.17
2017-04-04T10:07:34.571Z,1022.18
2017-04-04T10:08:44.539Z,1022.19
2017-04-04T10:09:54.779Z,1022.16
2017-04-04T10:11:05.018Z,1022.14
2017-04-04T10:12:15.265Z,1022.11
2017-04-04T10:13:25.187Z,1022.07
2017-04-04T10:14:35.114Z,1022.07
2017-04-04T10:15:44.737Z,1022.02
2017-04-04T10:16:54.667Z,1022.04
2017-04-04T10:18:04.907Z,1022
2017-04-04T10:19:14.835Z,1021.98
2017-04-04T10:20:25.074Z,1021.95
2017-04-04T10:21:35.317Z,1021.94
2017-04-04T10:22:45.560Z,1021.92
2017-04-04T10:23:55.484Z,1021.92
2017-04-04T10:25:05.413Z,1021.93
2017-04-04T10:26:15.654Z,1021.92
2017-04-04T10:27:25.629Z,1021.9
2017-04-04T10:28:35.570Z,1021.94
2017-04-04T10:29:45.498Z,1021.9
2017-04-04T10:30:55.742Z,1021.92
2017-04-04T10:32:05.988Z,1021.87
2017-04-04T10:33:16.226Z,1021.88
2017-04-04T10:34:25.845Z,1021.87
2017-04-04T10:35:36.078Z,1021.86
2017-04-04T10:36:46.013Z,1021.85
2017-04-04T10:37:55.940Z,1021.9
2017-04-04T10:39:06.186Z,1021.91
2017-04-04T10:40:16.115Z,1021.89
2017-04-04T10:41:26.388Z,1021.91
2017-04-04T10:42:36.314Z,1021.86
2017-04-04T10:43:46.243Z,1021.86
2017-04-04T10:44:56.482Z,1021.83
2017-04-04T10:46:06.409Z,1021.8
2017-04-04T10:47:16.024Z,1021.82
2017-04-04T10:48:26.308Z,1021.83
2017-04-04T10:49:36.548Z,1021.8
2017-04-04T10:50:46.161Z,1021.82
2017-04-04T10:51:56.088Z,1021.79
2017-04-04T10:53:05.706Z,1021.78
2017-04-04T10:54:15.951Z,1021.79
2017-04-04T10:55:25.881Z,1021.76
2017-04-04T10:56:35.497Z,1021.81
2017-04-04T10:57:45.426Z,1021.8
2017-04-04T10:58:55.661Z,1021.74
2017-04-04T11:00:05.910Z,1021.73
2017-04-04T11:01:16.158Z,1021.71
2017-04-04T11:02:26.394Z,1021.69
2017-04-04T11:03:36.633Z,1021.7
2017-04-04T11:04:46.565Z,1021.63
2017-04-04T11:05:56.813Z,1021.59
2017-04-04T11:07:06.436Z,1021.61
2017-04-04T11:08:16.679Z,1021.59
2017-04-04T11:09:26.603Z,1021.61
2017-04-04T11:10:36.532Z,1021.59
2017-04-04T11:11:46.454Z,1021.63
2017-04-04T11:12:56.065Z,1021.62
2017-04-04T11:14:06.303Z,1021.61
2017-04-04T11:15:16.548Z,1021.62
2017-04-04T11:16:26.491Z,1021.62
2017-04-04T11:17:36.729Z,1021.62
2017-04-04T11:18:46.344Z,1021.64
2017-04-04T11:19:56.582Z,1021.58
2017-04-04T11:21:06.512Z,1021.59
2017-04-04T11:22:16.757Z,1021.55
2017-04-04T11:23:27.000Z,1021.53
2017-04-04T11:24:37.243Z,1021.55
2017-04-04T11:25:47.486Z,1021.55
2017-04-04T11:26:57.421Z,1021.55
2017-04-04T11:28:07.348Z,1021.55
2017-04-04T11:29:16.967Z,1021.53
2017-04-04T11:30:27.204Z,1021.49
2017-04-04T11:31:36.818Z,1021.49
2017-04-04T11:32:47.064Z,1021.46
2017-04-04T11:33:57.308Z,1021.47
2017-04-04T11:35:07.703Z,1021.43
2017-04-04T11:36:17.634Z,1021.41
2017-04-04T11:37:27.243Z,1021.46
2017-04-04T11:38:37.179Z,1021.46
2017-04-04T11:39:47.103Z,1021.4
2017-04-04T11:40:57.069Z,1021.39
2017-04-04T11:42:06.680Z,1021.37
2017-04-04T11:43:16.302Z,1021.34
2017-04-04T11:44:26.241Z,1021.38
2017-04-04T11:45:36.493Z,1021.33
2017-04-04T11:46:46.425Z,1021.37
2017-04-04T11:47:56.349Z,1021.33
2017-04-04T11:49:05.957Z,1021.31
2017-04-04T11:50:16.199Z,1021.31
2017-04-04T11:51:26.443Z,1021.3
2017-04-04T11:52:36.690Z,1021.31
2017-04-04T11:53:46.618Z,1021.26
2017-04-04T11:54:56.232Z,1021.33
2017-04-04T11:56:06.164Z,1021.33
2017-04-04T11:57:15.469Z,1021.35
2017-04-04T11:58:25.084Z,1021.32
2017-04-04T11:59:34.698Z,1021.33
2017-04-04T12:00:44.623Z,1021.34
2017-04-04T12:01:54.865Z,1021.31
2017-04-04T12:03:04.795Z,1021.31
2017-04-04T12:04:15.030Z,1021.29
2017-04-04T12:05:25.264Z,1021.29
2017-04-04T12:06:35.504Z,1021.28
2017-04-04T12:07:45.753Z,1021.27
2017-04-04T12:08:55.682Z,1021.31
2017-04-04T12:10:05.926Z,1021.3
2017-04-04T12:11:15.854Z,1021.32
2017-04-04T12:12:25.782Z,1021.31
2017-04-04T12:13:36.023Z,1021.3
2017-04-04T12:14:46.258Z,1021.29
2017-04-04T12:15:56.498Z,1021.31
2017-04-04T12:17:06.744Z,1021.3
2017-04-04T12:18:16.982Z,1021.27
2017-04-04T12:19:26.907Z,1021.31
2017-04-04T12:20:37.147Z,1021.3
2017-04-04T12:21:47.386Z,1021.27
2017-04-04T12:22:57.329Z,1021.23
2017-04-04T12:24:07.255Z,1021.26
2017-04-04T12:25:16.865Z,1021.22
2017-04-04T12:26:26.791Z,1021.21
2017-04-04T12:27:36.717Z,1021.22
2017-04-04T12:28:46.684Z,1021.21
2017-04-04T12:29:56.939Z,1021.23
2017-04-04T12:31:07.177Z,1021.25
2017-04-04T12:32:17.415Z,1021.24
2017-04-04T12:33:27.376Z,1021.24
2017-04-04T12:34:36.996Z,1021.23
2017-04-04T12:35:47.252Z,1021.2
2017-04-04T12:36:57.176Z,1021.2
2017-04-04T12:38:07.419Z,1021.2
2017-04-04T12:39:17.667Z,1021.21
2017-04-04T12:40:27.922Z,1021.19
2017-04-04T12:41:37.853Z,1021.19
2017-04-04T12:42:47.783Z,1021.17
2017-04-04T12:43:57.710Z,1021.17
2017-04-04T12:45:07.645Z,1021.11
2017-04-04T12:46:17.894Z,1021.09
2017-04-04T12:47:28.129Z,1021.1
2017-04-04T12:48:38.377Z,1021.11
2017-04-04T12:49:48.624Z,1021.1
2017-04-04T12:50:58.558Z,1021.1
2017-04-04T12:52:08.801Z,1021.07
2017-04-04T12:53:18.731Z,1021.04
2017-04-04T12:54:28.977Z,1021.04
2017-04-04T12:55:39.229Z,1020.99
2017-04-04T12:56:48.891Z,1020.99
2017-04-04T12:57:58.819Z,1020.94
2017-04-04T12:59:08.750Z,1020.92
2017-04-04T13:00:18.679Z,1020.92
2017-04-04T13:01:28.917Z,1020.86
2017-04-04T13:02:39.155Z,1020.85
2017-04-04T13:03:48.764Z,1020.81
2017-04-04T13:04:59.008Z,1020.77
2017-04-04T13:06:08.936Z,1020.75
2017-04-04T13:07:18.870Z,1020.74
2017-04-04T13:08:28.803Z,1020.72
2017-04-04T13:09:39.044Z,1020.67
2017-04-04T13:10:49.331Z,1020.64
2017-04-04T13:11:59.597Z,1020.63
2017-04-04T13:13:09.835Z,1020.56
2017-04-04T13:14:19.765Z,1020.56
2017-04-04T13:15:30.009Z,1020.53
2017-04-04T13:16:40.248Z,1020.5
2017-04-04T13:17:49.554Z,1020.58
2017-04-04T13:18:59.487Z,1020.57
2017-04-04T13:20:09.421Z,1020.58
2017-04-04T13:21:19.349Z,1020.58
2017-04-04T13:22:28.973Z,1020.54
2017-04-04T13:23:39.212Z,1020.54
2017-04-04T13:24:49.138Z,1020.6
2017-04-04T13:25:59.377Z,1020.68
2017-04-04T13:27:09.309Z,1020.63
2017-04-04T13:28:19.237Z,1020.65
2017-04-04T13:29:29.167Z,1020.63
2017-04-04T13:30:39.409Z,1020.61
2017-04-04T13:31:49.650Z,1020.61
2017-04-04T13:32:59.922Z,1020.6
2017-04-04T13:34:10.168Z,1020.59
2017-04-04T13:35:20.094Z,1020.58
2017-04-04T13:36:30.022Z,1020.57
2017-04-04T13:37:39.949Z,1020.54
2017-04-04T13:38:49.887Z,1020.51
2017-04-04T13:40:00.122Z,1020.52
2017-04-04T13:41:09.766Z,1020.55
2017-04-04T13:42:20.021Z,1020.57
2017-04-04T13:43:30.262Z,1020.54
2017-04-04T13:44:40.499Z,1020.58
2017-04-04T13:45:50.110Z,1020.56
2017-04-04T13:47:00.355Z,1020.6
2017-04-04T13:48:10.610Z,1020.59
2017-04-04T13:49:20.539Z,1020.62
2017-04-04T13:50:30.148Z,1020.65
2017-04-04T13:51:40.387Z,1020.64
2017-04-04T13:52:50.631Z,1020.63
2017-04-04T13:54:00.871Z,1020.71
2017-04-04T13:55:10.803Z,1020.65
2017-04-04T13:56:21.040Z,1020.65
2017-04-04T13:57:31.277Z,1020.57
2017-04-04T13:58:41.523Z,1020.6
2017-04-04T13:59:51.138Z,1020.6
2017-04-04T14:01:01.385Z,1020.6
2017-04-04T14:02:10.997Z,1020.57
2017-04-04T14:03:20.928Z,1020.58
2017-04-04T14:04:31.175Z,1020.6
2017-04-04T14:05:41.102Z,1020.54
2017-04-04T14:06:50.719Z,1020.54
2017-04-04T14:08:00.956Z,1020.5
2017-04-04T14:09:11.200Z,1020.51
2017-04-04T14:10:21.434Z,1020.53